sensor_id;sensor_type;location;lat;lon;timestamp;P1;durP1;ratioP1;P2;durP2;ratioP2
20754;SDS011;26385;48.470;7.938;2022-11-11T00:00:50;4.22;;;2.95;;
20754;SDS011;26385;48.470;7.938;2022-11-11T00:03:22;4.70;;;3.17;;
20754;SDS011;26385;48.470;7.938;2022-11-11T00:05:48;4.50;;;3.10;;
20754;SDS011;26385;48.470;7.938;2022-11-11T00:08:13;4.35;;;2.80;;
20754;SDS011;26385;48.470;7.938;2022-11-11T00:10:38;3.53;;;2.90;;
20754;SDS011;26385;48.470;7.938;2022-11-11T00:13:04;4.82;;;2.95;;
20754;SDS011;26385;48.470;7.938;2022-11-11T00:15:30;3.83;;;3.05;;
20754;SDS011;26385;48.470;7.938;2022-11-11T00:17:56;3.35;;;2.60;;
20754;SDS011;26385;48.470;7.938;2022-11-11T00:20:39;6.68;;;2.88;;
20754;SDS011;26385;48.470;7.938;2022-11-11T00:23:24;5.63;;;2.88;;
20754;SDS011;26385;48.470;7.938;2022-11-11T00:26:12;3.78;;;2.42;;
20754;SDS011;26385;48.470;7.938;2022-11-11T00:28:38;5.10;;;2.78;;
20754;SDS011;26385;48.470;7.938;2022-11-11T00:31:04;4.20;;;2.70;;
20754;SDS011;26385;48.470;7.938;2022-11-11T00:33:31;3.40;;;2.80;;
20754;SDS011;26385;48.470;7.938;2022-11-11T00:35:57;5.32;;;2.63;;
20754;SDS011;26385;48.470;7.938;2022-11-11T00:38:23;7.20;;;3.17;;
20754;SDS011;26385;48.470;7.938;2022-11-11T00:41:23;5.70;;;3.53;;
20754;SDS011;26385;48.470;7.938;2022-11-11T00:43:51;7.00;;;4.07;;
20754;SDS011;26385;48.470;7.938;2022-11-11T00:46:16;8.63;;;3.97;;
20754;SDS011;26385;48.470;7.938;2022-11-11T00:49:00;6.10;;;4.35;;
20754;SDS011;26385;48.470;7.938;2022-11-11T00:51:44;6.47;;;3.53;;
20754;SDS011;26385;48.470;7.938;2022-11-11T00:54:10;7.20;;;3.63;;
20754;SDS011;26385;48.470;7.938;2022-11-11T00:56:36;5.18;;;3.53;;
20754;SDS011;26385;48.470;7.938;2022-11-11T00:59:03;5.90;;;3.03;;
20754;SDS011;26385;48.470;7.938;2022-11-11T01:01:29;5.07;;;3.00;;
20754;SDS011;26385;48.470;7.938;2022-11-11T01:03:54;4.80;;;2.47;;
20754;SDS011;26385;48.470;7.938;2022-11-11T01:06:19;5.50;;;2.90;;
20754;SDS011;26385;48.470;7.938;2022-11-11T01:08:45;4.88;;;2.83;;
20754;SDS011;26385;48.470;7.938;2022-11-11T01:11:11;3.67;;;2.60;;
20754;SDS011;26385;48.470;7.938;2022-11-11T01:13:40;3.97;;;2.80;;
20754;SDS011;26385;48.470;7.938;2022-11-11T01:16:06;4.10;;;3.00;;
20754;SDS011;26385;48.470;7.938;2022-11-11T01:18:34;4.40;;;2.90;;
20754;SDS011;26385;48.470;7.938;2022-11-11T01:21:07;6.53;;;3.40;;
20754;SDS011;26385;48.470;7.938;2022-11-11T01:23:37;5.70;;;3.35;;
20754;SDS011;26385;48.470;7.938;2022-11-11T01:26:06;4.03;;;2.60;;
20754;SDS011;26385;48.470;7.938;2022-11-11T01:28:44;5.45;;;2.70;;
20754;SDS011;26385;48.470;7.938;2022-11-11T01:31:13;5.03;;;2.80;;
20754;SDS011;26385;48.470;7.938;2022-11-11T01:33:39;3.13;;;2.33;;
20754;SDS011;26385;48.470;7.938;2022-11-11T01:36:06;3.72;;;2.67;;
20754;SDS011;26385;48.470;7.938;2022-11-11T01:38:33;4.88;;;2.97;;
20754;SDS011;26385;48.470;7.938;2022-11-11T01:40:59;2.90;;;2.50;;
20754;SDS011;26385;48.470;7.938;2022-11-11T01:43:24;3.50;;;2.50;;
20754;SDS011;26385;48.470;7.938;2022-11-11T01:45:56;4.13;;;2.38;;
20754;SDS011;26385;48.470;7.938;2022-11-11T01:51:37;3.58;;;2.30;;
20754;SDS011;26385;48.470;7.938;2022-11-11T01:54:05;3.28;;;2.50;;
20754;SDS011;26385;48.470;7.938;2022-11-11T01:56:34;4.30;;;2.60;;
20754;SDS011;26385;48.470;7.938;2022-11-11T01:59:01;5.00;;;2.80;;
20754;SDS011;26385;48.470;7.938;2022-11-11T02:01:30;3.38;;;2.65;;
20754;SDS011;26385;48.470;7.938;2022-11-11T02:03:56;3.75;;;2.80;;
20754;SDS011;26385;48.470;7.938;2022-11-11T02:06:43;3.15;;;2.50;;
20754;SDS011;26385;48.470;7.938;2022-11-11T02:09:09;4.13;;;2.85;;
20754;SDS011;26385;48.470;7.938;2022-11-11T02:11:35;4.32;;;2.95;;
20754;SDS011;26385;48.470;7.938;2022-11-11T02:14:21;3.72;;;2.72;;
20754;SDS011;26385;48.470;7.938;2022-11-11T02:17:02;3.20;;;2.90;;
20754;SDS011;26385;48.470;7.938;2022-11-11T02:22:07;4.70;;;3.30;;
20754;SDS011;26385;48.470;7.938;2022-11-11T02:24:37;5.43;;;3.20;;
20754;SDS011;26385;48.470;7.938;2022-11-11T02:27:06;3.95;;;3.15;;
20754;SDS011;26385;48.470;7.938;2022-11-11T02:29:34;4.40;;;2.75;;
20754;SDS011;26385;48.470;7.938;2022-11-11T02:32:00;3.38;;;2.92;;
20754;SDS011;26385;48.470;7.938;2022-11-11T02:34:29;5.53;;;2.67;;
20754;SDS011;26385;48.470;7.938;2022-11-11T02:36:56;4.90;;;3.35;;
20754;SDS011;26385;48.470;7.938;2022-11-11T02:39:21;3.92;;;3.00;;
20754;SDS011;26385;48.470;7.938;2022-11-11T02:41:49;3.90;;;3.08;;
20754;SDS011;26385;48.470;7.938;2022-11-11T02:44:20;4.45;;;2.92;;
20754;SDS011;26385;48.470;7.938;2022-11-11T02:46:46;4.05;;;2.60;;
20754;SDS011;26385;48.470;7.938;2022-11-11T02:49:11;3.95;;;2.90;;
20754;SDS011;26385;48.470;7.938;2022-11-11T02:51:36;3.70;;;2.95;;
20754;SDS011;26385;48.470;7.938;2022-11-11T02:54:02;3.78;;;2.67;;
20754;SDS011;26385;48.470;7.938;2022-11-11T02:56:27;5.40;;;2.92;;
20754;SDS011;26385;48.470;7.938;2022-11-11T02:59:11;3.33;;;2.85;;
20754;SDS011;26385;48.470;7.938;2022-11-11T03:01:36;3.72;;;2.63;;
20754;SDS011;26385;48.470;7.938;2022-11-11T03:04:02;4.35;;;2.83;;
20754;SDS011;26385;48.470;7.938;2022-11-11T03:06:28;4.88;;;2.85;;
20754;SDS011;26385;48.470;7.938;2022-11-11T03:08:53;3.60;;;3.05;;
20754;SDS011;26385;48.470;7.938;2022-11-11T03:11:18;3.20;;;2.70;;
20754;SDS011;26385;48.470;7.938;2022-11-11T03:13:54;3.65;;;2.80;;
20754;SDS011;26385;48.470;7.938;2022-11-11T03:16:24;5.30;;;2.95;;
20754;SDS011;26385;48.470;7.938;2022-11-11T03:19:13;3.40;;;2.80;;
20754;SDS011;26385;48.470;7.938;2022-11-11T03:21:38;3.97;;;2.80;;
20754;SDS011;26385;48.470;7.938;2022-11-11T03:24:04;3.35;;;2.70;;
20754;SDS011;26385;48.470;7.938;2022-11-11T03:26:29;3.40;;;2.72;;
20754;SDS011;26385;48.470;7.938;2022-11-11T03:28:55;4.35;;;2.83;;
20754;SDS011;26385;48.470;7.938;2022-11-11T03:31:20;5.28;;;2.70;;
20754;SDS011;26385;48.470;7.938;2022-11-11T03:33:46;3.53;;;2.40;;
20754;SDS011;26385;48.470;7.938;2022-11-11T03:36:11;5.75;;;3.22;;
20754;SDS011;26385;48.470;7.938;2022-11-11T03:38:36;3.72;;;2.47;;
20754;SDS011;26385;48.470;7.938;2022-11-11T03:41:02;4.93;;;2.55;;
20754;SDS011;26385;48.470;7.938;2022-11-11T03:43:32;2.85;;;2.55;;
20754;SDS011;26385;48.470;7.938;2022-11-11T03:46:00;5.47;;;2.40;;
20754;SDS011;26385;48.470;7.938;2022-11-11T03:48:28;3.75;;;2.50;;
20754;SDS011;26385;48.470;7.938;2022-11-11T03:50:55;3.88;;;2.80;;
20754;SDS011;26385;48.470;7.938;2022-11-11T03:53:20;3.35;;;2.42;;
20754;SDS011;26385;48.470;7.938;2022-11-11T03:55:47;3.88;;;2.67;;
20754;SDS011;26385;48.470;7.938;2022-11-11T03:58:13;3.75;;;2.50;;
20754;SDS011;26385;48.470;7.938;2022-11-11T04:00:39;4.60;;;2.90;;
20754;SDS011;26385;48.470;7.938;2022-11-11T04:03:12;4.00;;;3.03;;
20754;SDS011;26385;48.470;7.938;2022-11-11T04:05:58;6.05;;;2.80;;
20754;SDS011;26385;48.470;7.938;2022-11-11T04:08:42;3.17;;;2.38;;
20754;SDS011;26385;48.470;7.938;2022-11-11T04:11:27;3.17;;;2.88;;
20754;SDS011;26385;48.470;7.938;2022-11-11T04:13:56;3.08;;;2.40;;
20754;SDS011;26385;48.470;7.938;2022-11-11T04:16:44;3.78;;;2.55;;
20754;SDS011;26385;48.470;7.938;2022-11-11T04:19:09;3.95;;;2.80;;
20754;SDS011;26385;48.470;7.938;2022-11-11T04:21:52;3.67;;;2.53;;
20754;SDS011;26385;48.470;7.938;2022-11-11T04:24:18;3.42;;;2.50;;
20754;SDS011;26385;48.470;7.938;2022-11-11T04:27:05;3.72;;;2.42;;
20754;SDS011;26385;48.470;7.938;2022-11-11T04:29:32;2.60;;;2.40;;
20754;SDS011;26385;48.470;7.938;2022-11-11T04:31:59;2.63;;;2.42;;
20754;SDS011;26385;48.470;7.938;2022-11-11T04:34:49;3.53;;;2.40;;
20754;SDS011;26385;48.470;7.938;2022-11-11T04:37:16;3.42;;;2.45;;
20754;SDS011;26385;48.470;7.938;2022-11-11T04:39:42;3.40;;;2.75;;
20754;SDS011;26385;48.470;7.938;2022-11-11T04:42:27;5.13;;;2.30;;
20754;SDS011;26385;48.470;7.938;2022-11-11T04:44:53;2.30;;;2.10;;
20754;SDS011;26385;48.470;7.938;2022-11-11T04:47:37;4.82;;;2.10;;
20754;SDS011;26385;48.470;7.938;2022-11-11T04:50:03;3.97;;;2.10;;
20754;SDS011;26385;48.470;7.938;2022-11-11T04:52:29;2.47;;;2.13;;
20754;SDS011;26385;48.470;7.938;2022-11-11T04:54:55;1.95;;;1.80;;
20754;SDS011;26385;48.470;7.938;2022-11-11T04:57:43;2.20;;;1.85;;
20754;SDS011;26385;48.470;7.938;2022-11-11T05:00:17;3.38;;;2.03;;
20754;SDS011;26385;48.470;7.938;2022-11-11T05:02:43;4.30;;;2.10;;
20754;SDS011;26385;48.470;7.938;2022-11-11T05:05:28;3.42;;;2.10;;
20754;SDS011;26385;48.470;7.938;2022-11-11T05:08:14;1.90;;;1.60;;
20754;SDS011;26385;48.470;7.938;2022-11-11T05:10:57;2.05;;;1.70;;
20754;SDS011;26385;48.470;7.938;2022-11-11T05:13:22;3.22;;;2.05;;
20754;SDS011;26385;48.470;7.938;2022-11-11T05:16:07;4.10;;;1.98;;
20754;SDS011;26385;48.470;7.938;2022-11-11T05:18:52;2.20;;;1.92;;
20754;SDS011;26385;48.470;7.938;2022-11-11T05:21:36;3.40;;;1.80;;
20754;SDS011;26385;48.470;7.938;2022-11-11T05:24:01;2.85;;;1.92;;
20754;SDS011;26385;48.470;7.938;2022-11-11T05:26:45;2.03;;;1.83;;
20754;SDS011;26385;48.470;7.938;2022-11-11T05:29:10;1.77;;;1.60;;
20754;SDS011;26385;48.470;7.938;2022-11-11T05:31:35;3.92;;;2.10;;
20754;SDS011;26385;48.470;7.938;2022-11-11T05:34:01;63.20;;;13.07;;
20754;SDS011;26385;48.470;7.938;2022-11-11T05:36:26;45.97;;;8.95;;
20754;SDS011;26385;48.470;7.938;2022-11-11T05:38:51;18.40;;;5.43;;
20754;SDS011;26385;48.470;7.938;2022-11-11T05:41:16;7.10;;;2.53;;
20754;SDS011;26385;48.470;7.938;2022-11-11T05:43:42;4.30;;;2.55;;
20754;SDS011;26385;48.470;7.938;2022-11-11T05:46:07;4.57;;;2.97;;
20754;SDS011;26385;48.470;7.938;2022-11-11T05:48:32;4.18;;;2.10;;
20754;SDS011;26385;48.470;7.938;2022-11-11T05:50:58;2.83;;;2.30;;
20754;SDS011;26385;48.470;7.938;2022-11-11T05:53:23;3.63;;;2.20;;
20754;SDS011;26385;48.470;7.938;2022-11-11T05:55:49;3.15;;;2.22;;
20754;SDS011;26385;48.470;7.938;2022-11-11T05:58:16;4.10;;;2.88;;
20754;SDS011;26385;48.470;7.938;2022-11-11T06:00:42;3.10;;;2.42;;
20754;SDS011;26385;48.470;7.938;2022-11-11T06:03:07;4.93;;;3.83;;
20754;SDS011;26385;48.470;7.938;2022-11-11T06:05:34;4.45;;;2.90;;
20754;SDS011;26385;48.470;7.938;2022-11-11T06:08:00;4.32;;;3.13;;
20754;SDS011;26385;48.470;7.938;2022-11-11T06:10:25;9.35;;;3.33;;
20754;SDS011;26385;48.470;7.938;2022-11-11T06:12:57;5.53;;;3.47;;
20754;SDS011;26385;48.470;7.938;2022-11-11T06:15:26;5.63;;;3.90;;
20754;SDS011;26385;48.470;7.938;2022-11-11T06:17:52;6.15;;;3.72;;
20754;SDS011;26385;48.470;7.938;2022-11-11T06:20:17;5.63;;;4.13;;
20754;SDS011;26385;48.470;7.938;2022-11-11T06:22:43;5.03;;;3.88;;
20754;SDS011;26385;48.470;7.938;2022-11-11T06:25:20;6.30;;;3.90;;
20754;SDS011;26385;48.470;7.938;2022-11-11T06:28:04;5.00;;;3.83;;
20754;SDS011;26385;48.470;7.938;2022-11-11T06:30:29;4.78;;;3.70;;
20754;SDS011;26385;48.470;7.938;2022-11-11T06:32:54;5.15;;;3.70;;
20754;SDS011;26385;48.470;7.938;2022-11-11T06:35:19;5.72;;;4.05;;
20754;SDS011;26385;48.470;7.938;2022-11-11T06:37:45;8.07;;;3.75;;
20754;SDS011;26385;48.470;7.938;2022-11-11T06:40:10;10.27;;;3.95;;
20754;SDS011;26385;48.470;7.938;2022-11-11T06:42:36;5.40;;;3.90;;
20754;SDS011;26385;48.470;7.938;2022-11-11T06:45:02;7.85;;;4.10;;
20754;SDS011;26385;48.470;7.938;2022-11-11T06:47:27;6.20;;;4.07;;
20754;SDS011;26385;48.470;7.938;2022-11-11T06:49:52;5.07;;;4.00;;
20754;SDS011;26385;48.470;7.938;2022-11-11T06:52:18;7.20;;;4.10;;
20754;SDS011;26385;48.470;7.938;2022-11-11T06:54:43;5.03;;;4.15;;
20754;SDS011;26385;48.470;7.938;2022-11-11T06:57:08;5.47;;;4.00;;
20754;SDS011;26385;48.470;7.938;2022-11-11T06:59:33;3.65;;;3.10;;
20754;SDS011;26385;48.470;7.938;2022-11-11T07:01:59;3.30;;;3.00;;
20754;SDS011;26385;48.470;7.938;2022-11-11T07:04:24;4.70;;;2.85;;
20754;SDS011;26385;48.470;7.938;2022-11-11T07:06:49;6.25;;;4.07;;
20754;SDS011;26385;48.470;7.938;2022-11-11T07:09:14;5.20;;;3.15;;
20754;SDS011;26385;48.470;7.938;2022-11-11T07:11:40;3.67;;;2.13;;
20754;SDS011;26385;48.470;7.938;2022-11-11T07:14:05;3.38;;;2.10;;
20754;SDS011;26385;48.470;7.938;2022-11-11T07:16:30;4.22;;;2.40;;
20754;SDS011;26385;48.470;7.938;2022-11-11T07:18:55;2.85;;;2.15;;
20754;SDS011;26385;48.470;7.938;2022-11-11T07:21:21;4.10;;;2.10;;
20754;SDS011;26385;48.470;7.938;2022-11-11T07:23:46;3.53;;;2.17;;
20754;SDS011;26385;48.470;7.938;2022-11-11T07:26:11;2.72;;;2.30;;
20754;SDS011;26385;48.470;7.938;2022-11-11T07:28:36;5.78;;;2.40;;
20754;SDS011;26385;48.470;7.938;2022-11-11T07:31:02;3.38;;;2.35;;
20754;SDS011;26385;48.470;7.938;2022-11-11T07:33:27;3.22;;;2.35;;
20754;SDS011;26385;48.470;7.938;2022-11-11T07:35:52;3.35;;;2.92;;
20754;SDS011;26385;48.470;7.938;2022-11-11T07:38:17;3.78;;;2.72;;
20754;SDS011;26385;48.470;7.938;2022-11-11T07:40:43;5.50;;;3.17;;
20754;SDS011;26385;48.470;7.938;2022-11-11T07:43:08;6.25;;;3.55;;
20754;SDS011;26385;48.470;7.938;2022-11-11T07:45:33;5.07;;;3.28;;
20754;SDS011;26385;48.470;7.938;2022-11-11T07:47:59;6.32;;;4.53;;
20754;SDS011;26385;48.470;7.938;2022-11-11T07:50:24;3.95;;;2.70;;
20754;SDS011;26385;48.470;7.938;2022-11-11T07:52:49;3.80;;;2.60;;
20754;SDS011;26385;48.470;7.938;2022-11-11T07:55:14;6.07;;;3.42;;
20754;SDS011;26385;48.470;7.938;2022-11-11T07:57:40;4.95;;;3.17;;
20754;SDS011;26385;48.470;7.938;2022-11-11T08:00:05;6.22;;;2.97;;
20754;SDS011;26385;48.470;7.938;2022-11-11T08:02:32;4.28;;;2.90;;
20754;SDS011;26385;48.470;7.938;2022-11-11T08:04:58;4.60;;;2.67;;
20754;SDS011;26385;48.470;7.938;2022-11-11T08:07:23;5.32;;;2.90;;
20754;SDS011;26385;48.470;7.938;2022-11-11T08:09:49;3.65;;;2.85;;
20754;SDS011;26385;48.470;7.938;2022-11-11T08:12:14;3.00;;;2.70;;
20754;SDS011;26385;48.470;7.938;2022-11-11T08:14:58;5.10;;;3.75;;
20754;SDS011;26385;48.470;7.938;2022-11-11T08:17:23;3.70;;;3.03;;
20754;SDS011;26385;48.470;7.938;2022-11-11T08:19:49;4.43;;;3.17;;
20754;SDS011;26385;48.470;7.938;2022-11-11T08:22:14;3.58;;;3.08;;
20754;SDS011;26385;48.470;7.938;2022-11-11T08:24:39;6.28;;;2.97;;
20754;SDS011;26385;48.470;7.938;2022-11-11T08:27:05;4.10;;;3.03;;
20754;SDS011;26385;48.470;7.938;2022-11-11T08:29:30;5.03;;;3.30;;
20754;SDS011;26385;48.470;7.938;2022-11-11T08:31:55;3.72;;;2.92;;
20754;SDS011;26385;48.470;7.938;2022-11-11T08:34:21;4.75;;;3.05;;
20754;SDS011;26385;48.470;7.938;2022-11-11T08:36:47;5.07;;;3.05;;
20754;SDS011;26385;48.470;7.938;2022-11-11T08:39:12;3.97;;;2.70;;
20754;SDS011;26385;48.470;7.938;2022-11-11T08:41:37;5.00;;;3.08;;
20754;SDS011;26385;48.470;7.938;2022-11-11T08:44:02;6.07;;;2.65;;
20754;SDS011;26385;48.470;7.938;2022-11-11T08:46:28;3.10;;;2.80;;
20754;SDS011;26385;48.470;7.938;2022-11-11T08:48:54;5.32;;;2.92;;
20754;SDS011;26385;48.470;7.938;2022-11-11T08:51:20;3.65;;;2.70;;
20754;SDS011;26385;48.470;7.938;2022-11-11T08:53:45;4.10;;;2.83;;
20754;SDS011;26385;48.470;7.938;2022-11-11T08:56:10;5.13;;;2.63;;
20754;SDS011;26385;48.470;7.938;2022-11-11T08:58:36;5.25;;;3.17;;
20754;SDS011;26385;48.470;7.938;2022-11-11T09:01:01;5.00;;;3.83;;
20754;SDS011;26385;48.470;7.938;2022-11-11T09:03:28;3.05;;;2.72;;
20754;SDS011;26385;48.470;7.938;2022-11-11T09:05:54;4.97;;;3.05;;
20754;SDS011;26385;48.470;7.938;2022-11-11T09:08:19;7.18;;;3.70;;
20754;SDS011;26385;48.470;7.938;2022-11-11T09:10:45;3.50;;;2.35;;
20754;SDS011;26385;48.470;7.938;2022-11-11T09:13:10;4.22;;;2.65;;
20754;SDS011;26385;48.470;7.938;2022-11-11T09:15:35;3.70;;;2.47;;
20754;SDS011;26385;48.470;7.938;2022-11-11T09:18:01;4.30;;;2.30;;
20754;SDS011;26385;48.470;7.938;2022-11-11T09:20:27;5.20;;;3.67;;
20754;SDS011;26385;48.470;7.938;2022-11-11T09:22:52;5.75;;;2.28;;
20754;SDS011;26385;48.470;7.938;2022-11-11T09:25:18;5.40;;;2.00;;
20754;SDS011;26385;48.470;7.938;2022-11-11T09:27:52;6.57;;;2.65;;
20754;SDS011;26385;48.470;7.938;2022-11-11T09:30:19;3.30;;;2.35;;
20754;SDS011;26385;48.470;7.938;2022-11-11T09:32:45;2.80;;;1.98;;
20754;SDS011;26385;48.470;7.938;2022-11-11T09:35:10;3.05;;;2.28;;
20754;SDS011;26385;48.470;7.938;2022-11-11T09:37:35;2.20;;;2.00;;
20754;SDS011;26385;48.470;7.938;2022-11-11T09:40:01;2.83;;;2.30;;
20754;SDS011;26385;48.470;7.938;2022-11-11T09:45:28;2.20;;;1.98;;
20754;SDS011;26385;48.470;7.938;2022-11-11T09:50:57;2.22;;;1.80;;
20754;SDS011;26385;48.470;7.938;2022-11-11T09:55:57;2.42;;;1.85;;
20754;SDS011;26385;48.470;7.938;2022-11-11T09:58:33;3.08;;;1.77;;
20754;SDS011;26385;48.470;7.938;2022-11-11T10:01:05;3.50;;;1.95;;
20754;SDS011;26385;48.470;7.938;2022-11-11T10:03:37;4.90;;;2.30;;
20754;SDS011;26385;48.470;7.938;2022-11-11T10:06:09;5.07;;;1.80;;
20754;SDS011;26385;48.470;7.938;2022-11-11T10:08:42;4.20;;;1.98;;
20754;SDS011;26385;48.470;7.938;2022-11-11T10:11:21;2.15;;;1.88;;
20754;SDS011;26385;48.470;7.938;2022-11-11T10:13:53;2.15;;;1.92;;
20754;SDS011;26385;48.470;7.938;2022-11-11T10:16:24;2.25;;;1.85;;
20754;SDS011;26385;48.470;7.938;2022-11-11T10:19:15;4.70;;;2.50;;
20754;SDS011;26385;48.470;7.938;2022-11-11T10:22:01;5.45;;;2.97;;
20754;SDS011;26385;48.470;7.938;2022-11-11T10:24:38;4.72;;;2.67;;
20754;SDS011;26385;48.470;7.938;2022-11-11T10:27:14;4.20;;;2.47;;
20754;SDS011;26385;48.470;7.938;2022-11-11T10:29:42;5.38;;;3.20;;
20754;SDS011;26385;48.470;7.938;2022-11-11T10:32:15;4.60;;;3.40;;
20754;SDS011;26385;48.470;7.938;2022-11-11T10:34:45;5.47;;;3.55;;
20754;SDS011;26385;48.470;7.938;2022-11-11T10:37:22;6.97;;;3.88;;
20754;SDS011;26385;48.470;7.938;2022-11-11T10:42:40;4.85;;;3.47;;
20754;SDS011;26385;48.470;7.938;2022-11-11T10:45:28;6.60;;;4.38;;
20754;SDS011;26385;48.470;7.938;2022-11-11T10:48:04;6.32;;;5.25;;
20754;SDS011;26385;48.470;7.938;2022-11-11T10:50:37;10.98;;;5.20;;
20754;SDS011;26385;48.470;7.938;2022-11-11T10:53:19;7.68;;;5.50;;
20754;SDS011;26385;48.470;7.938;2022-11-11T10:58:53;5.20;;;4.68;;
20754;SDS011;26385;48.470;7.938;2022-11-11T11:04:19;7.97;;;5.97;;
20754;SDS011;26385;48.470;7.938;2022-11-11T11:06:53;6.85;;;5.40;;
20754;SDS011;26385;48.470;7.938;2022-11-11T11:12:09;7.28;;;5.13;;
20754;SDS011;26385;48.470;7.938;2022-11-11T11:14:42;9.48;;;5.10;;
20754;SDS011;26385;48.470;7.938;2022-11-11T11:17:12;7.90;;;5.57;;
20754;SDS011;26385;48.470;7.938;2022-11-11T11:19:41;9.13;;;6.45;;
20754;SDS011;26385;48.470;7.938;2022-11-11T11:22:06;8.95;;;6.30;;
20754;SDS011;26385;48.470;7.938;2022-11-11T11:24:32;8.77;;;6.03;;
20754;SDS011;26385;48.470;7.938;2022-11-11T11:27:01;9.50;;;6.30;;
20754;SDS011;26385;48.470;7.938;2022-11-11T11:29:37;8.65;;;6.65;;
20754;SDS011;26385;48.470;7.938;2022-11-11T11:34:42;9.15;;;7.18;;
20754;SDS011;26385;48.470;7.938;2022-11-11T11:37:08;12.73;;;7.50;;
20754;SDS011;26385;48.470;7.938;2022-11-11T11:39:33;10.32;;;7.38;;
20754;SDS011;26385;48.470;7.938;2022-11-11T11:42:00;9.20;;;7.30;;
20754;SDS011;26385;48.470;7.938;2022-11-11T11:44:29;9.52;;;7.28;;
20754;SDS011;26385;48.470;7.938;2022-11-11T11:55:14;9.48;;;7.63;;
20754;SDS011;26385;48.470;7.938;2022-11-11T11:57:46;10.80;;;7.55;;
20754;SDS011;26385;48.470;7.938;2022-11-11T12:08:10;12.75;;;8.30;;
20754;SDS011;26385;48.470;7.938;2022-11-11T12:16:46;12.32;;;7.90;;
20754;SDS011;26385;48.470;7.938;2022-11-11T12:19:37;11.10;;;7.82;;
20754;SDS011;26385;48.470;7.938;2022-11-11T12:22:24;10.65;;;7.70;;
20754;SDS011;26385;48.470;7.938;2022-11-11T12:30:50;11.13;;;7.95;;
20754;SDS011;26385;48.470;7.938;2022-11-11T12:36:19;11.07;;;8.25;;
20754;SDS011;26385;48.470;7.938;2022-11-11T12:41:51;11.18;;;8.43;;
20754;SDS011;26385;48.470;7.938;2022-11-11T12:44:47;12.57;;;8.60;;
20754;SDS011;26385;48.470;7.938;2022-11-11T12:50:15;12.27;;;8.70;;
20754;SDS011;26385;48.470;7.938;2022-11-11T12:58:22;10.13;;;8.93;;
20754;SDS011;26385;48.470;7.938;2022-11-11T13:03:50;10.90;;;8.95;;
20754;SDS011;26385;48.470;7.938;2022-11-11T13:06:29;10.60;;;8.50;;
20754;SDS011;26385;48.470;7.938;2022-11-11T13:12:00;11.15;;;8.75;;
20754;SDS011;26385;48.470;7.938;2022-11-11T13:17:15;12.75;;;8.88;;
20754;SDS011;26385;48.470;7.938;2022-11-11T13:19:42;15.60;;;9.77;;
20754;SDS011;26385;48.470;7.938;2022-11-11T13:22:24;12.90;;;10.20;;
20754;SDS011;26385;48.470;7.938;2022-11-11T13:24:54;12.32;;;9.05;;
20754;SDS011;26385;48.470;7.938;2022-11-11T13:32:55;14.07;;;9.73;;
20754;SDS011;26385;48.470;7.938;2022-11-11T13:35:30;11.70;;;9.73;;
20754;SDS011;26385;48.470;7.938;2022-11-11T13:38:00;11.98;;;10.38;;
20754;SDS011;26385;48.470;7.938;2022-11-11T13:42:57;13.10;;;10.23;;
20754;SDS011;26385;48.470;7.938;2022-11-11T13:45:27;16.38;;;9.80;;
20754;SDS011;26385;48.470;7.938;2022-11-11T13:47:56;14.00;;;10.00;;
20754;SDS011;26385;48.470;7.938;2022-11-11T13:50:32;14.35;;;10.35;;
20754;SDS011;26385;48.470;7.938;2022-11-11T13:53:03;13.63;;;11.20;;
20754;SDS011;26385;48.470;7.938;2022-11-11T13:55:40;14.20;;;10.50;;
20754;SDS011;26385;48.470;7.938;2022-11-11T13:58:25;12.35;;;10.13;;
20754;SDS011;26385;48.470;7.938;2022-11-11T14:00:56;14.43;;;10.15;;
20754;SDS011;26385;48.470;7.938;2022-11-11T14:06:27;11.02;;;8.43;;
20754;SDS011;26385;48.470;7.938;2022-11-11T14:13:49;12.68;;;8.95;;
20754;SDS011;26385;48.470;7.938;2022-11-11T14:18:59;11.40;;;9.40;;
20754;SDS011;26385;48.470;7.938;2022-11-11T14:21:50;15.02;;;10.18;;
20754;SDS011;26385;48.470;7.938;2022-11-11T14:24:22;16.08;;;11.15;;
20754;SDS011;26385;48.470;7.938;2022-11-11T14:29:46;15.25;;;11.73;;
20754;SDS011;26385;48.470;7.938;2022-11-11T14:34:57;15.77;;;11.70;;
20754;SDS011;26385;48.470;7.938;2022-11-11T14:40:32;16.02;;;12.07;;
20754;SDS011;26385;48.470;7.938;2022-11-11T14:42:58;16.63;;;11.82;;
20754;SDS011;26385;48.470;7.938;2022-11-11T14:51:33;15.30;;;12.48;;
20754;SDS011;26385;48.470;7.938;2022-11-11T14:54:00;15.63;;;12.02;;
20754;SDS011;26385;48.470;7.938;2022-11-11T14:56:26;19.40;;;12.13;;
20754;SDS011;26385;48.470;7.938;2022-11-11T14:58:52;16.75;;;12.10;;
20754;SDS011;26385;48.470;7.938;2022-11-11T15:01:20;18.65;;;12.10;;
20754;SDS011;26385;48.470;7.938;2022-11-11T15:03:46;13.48;;;11.48;;
20754;SDS011;26385;48.470;7.938;2022-11-11T15:06:17;17.35;;;12.00;;
20754;SDS011;26385;48.470;7.938;2022-11-11T15:08:57;16.92;;;11.95;;
20754;SDS011;26385;48.470;7.938;2022-11-11T15:14:33;16.73;;;11.75;;
20754;SDS011;26385;48.470;7.938;2022-11-11T15:19:41;14.15;;;11.73;;
20754;SDS011;26385;48.470;7.938;2022-11-11T15:25:10;16.27;;;11.40;;
20754;SDS011;26385;48.470;7.938;2022-11-11T15:27:52;16.60;;;12.82;;
20754;SDS011;26385;48.470;7.938;2022-11-11T15:30:20;16.98;;;11.93;;
20754;SDS011;26385;48.470;7.938;2022-11-11T15:35:45;16.15;;;12.88;;
20754;SDS011;26385;48.470;7.938;2022-11-11T15:38:26;18.70;;;12.68;;
20754;SDS011;26385;48.470;7.938;2022-11-11T15:40:53;16.58;;;13.00;;
20754;SDS011;26385;48.470;7.938;2022-11-11T15:43:22;15.85;;;12.55;;
20754;SDS011;26385;48.470;7.938;2022-11-11T15:45:51;17.48;;;13.98;;
20754;SDS011;26385;48.470;7.938;2022-11-11T15:48:29;18.00;;;14.25;;
20754;SDS011;26385;48.470;7.938;2022-11-11T15:51:13;20.85;;;13.57;;
20754;SDS011;26385;48.470;7.938;2022-11-11T15:53:40;17.58;;;13.10;;
20754;SDS011;26385;48.470;7.938;2022-11-11T15:56:07;19.40;;;14.15;;
20754;SDS011;26385;48.470;7.938;2022-11-11T15:58:33;19.25;;;14.50;;
20754;SDS011;26385;48.470;7.938;2022-11-11T16:01:00;17.95;;;14.02;;
20754;SDS011;26385;48.470;7.938;2022-11-11T16:03:31;20.80;;;14.88;;
20754;SDS011;26385;48.470;7.938;2022-11-11T16:06:03;20.80;;;15.15;;
20754;SDS011;26385;48.470;7.938;2022-11-11T16:08:32;18.63;;;13.50;;
20754;SDS011;26385;48.470;7.938;2022-11-11T16:10:58;18.52;;;14.60;;
20754;SDS011;26385;48.470;7.938;2022-11-11T16:13:32;17.70;;;14.18;;
20754;SDS011;26385;48.470;7.938;2022-11-11T16:16:09;19.60;;;14.30;;
20754;SDS011;26385;48.470;7.938;2022-11-11T16:18:44;17.90;;;14.32;;
20754;SDS011;26385;48.470;7.938;2022-11-11T16:24:23;22.23;;;15.00;;
20754;SDS011;26385;48.470;7.938;2022-11-11T16:26:51;20.83;;;15.00;;
20754;SDS011;26385;48.470;7.938;2022-11-11T16:29:17;21.30;;;15.00;;
20754;SDS011;26385;48.470;7.938;2022-11-11T16:31:43;18.95;;;14.88;;
20754;SDS011;26385;48.470;7.938;2022-11-11T16:34:22;19.10;;;14.85;;
20754;SDS011;26385;48.470;7.938;2022-11-11T16:37:04;23.08;;;15.75;;
20754;SDS011;26385;48.470;7.938;2022-11-11T16:39:30;23.15;;;15.75;;
20754;SDS011;26385;48.470;7.938;2022-11-11T16:41:56;23.05;;;16.20;;
20754;SDS011;26385;48.470;7.938;2022-11-11T16:50:01;21.20;;;15.25;;
20754;SDS011;26385;48.470;7.938;2022-11-11T16:52:28;19.17;;;16.10;;
20754;SDS011;26385;48.470;7.938;2022-11-11T16:54:55;19.95;;;14.98;;
20754;SDS011;26385;48.470;7.938;2022-11-11T16:57:25;24.58;;;15.85;;
20754;SDS011;26385;48.470;7.938;2022-11-11T16:59:56;24.00;;;16.30;;
20754;SDS011;26385;48.470;7.938;2022-11-11T17:02:25;26.40;;;18.30;;
20754;SDS011;26385;48.470;7.938;2022-11-11T17:04:52;23.08;;;17.23;;
20754;SDS011;26385;48.470;7.938;2022-11-11T17:07:38;23.73;;;16.90;;
20754;SDS011;26385;48.470;7.938;2022-11-11T17:10:08;25.35;;;17.70;;